Weather at Kédougou Airport

Public forecast

Using degrees Celsius for public forecast. Weather courtesy of forecast.io.

Current aviation weather report (METAR) for Kédougou Airport

Report is more than 2 hours old.

Retrieved 2020/10/27 10:00 UTC (4 hours ago):

GOTK 271000Z 18004KT CAVOK 29/21 Q1012

Closest aviation forecast (TAF) to Kédougou Airport

Closest forecast is Osvaldo Vieira International Airport, 205.5 nm (380.6 km) W. Retrieved 2020/10/27 12:00 UTC (2 hours ago):

TAF GGOV 271100Z 2712/2812 34006KT 9999 SCT014 TEMPO 2804/2808 2000 BR BKN005